This is the latest recevied weather packets stored in our database for station/object PE1RXF-13. If no packets are shown the sender has not sent any weather packets the latest 1 day(s).
| Time | Temp. | Humidity | Pressure | Rain* | Wind** | Luminosity | Snow |
|---|---|---|---|---|---|---|---|
| 1836274689 | 17.22° C | 97% | 760.9 hPa | 0 mm | 7.15 m/s, 180° | 0 W/m² | - |
| 1778031852 | 8.89° C | 99% | 1008.3 hPa | 0 mm | 0.45 m/s, 0° | 0 W/m² | - |
| 1778030052 | 8.89° C | 99% | 1008.4 hPa | 0 mm | 0.45 m/s, 0° | 0 W/m² | - |
| 1778028252 | 9.44° C | 99% | 1008.6 hPa | 0 mm | 0.45 m/s, 315° | 0 W/m² | - |
| 1778026453 | 9.44° C | 99% | 1008.8 hPa | 0 mm | 0.45 m/s, 0° | 0 W/m² | - |
| 1778024653 | 9.44° C | 99% | 1009.2 hPa | 0 mm | 0.45 m/s, 45° | 0 W/m² | - |
| 1778022852 | 9.44° C | 99% | 1009.1 hPa | 0 mm | 0.45 m/s, 315° | 0 W/m² | - |
| 1778021053 | 9.44° C | 99% | 1009.3 hPa | 0 mm | 0.45 m/s, 90° | 0 W/m² | - |
| 1778019252 | 8.89° C | 99% | 1009.5 hPa | 0 mm | 0.45 m/s, 315° | 0 W/m² | - |
| 1778017452 | 9.44° C | 99% | 1009.8 hPa | 0 mm | 0.45 m/s, 45° | 0 W/m² | - |
| 1778015652 | 9.44° C | 99% | 1009.8 hPa | 0 mm | 0.45 m/s, 315° | 0 W/m² | - |
| 1778013853 | 9.44° C | 99% | 1010 hPa | 0 mm | 0 m/s | 0 W/m² | - |
| 1778012053 | 9.44° C | 99% | 1009.9 hPa | 0 mm | 0.45 m/s, 315° | 0 W/m² | - |
| 1778010252 | 9.44° C | 99% | 1009.9 hPa | 0 mm | 0.45 m/s, 45° | 0 W/m² | - |
| 1778008453 | 9.44° C | 99% | 1009.8 hPa | 0 mm | 0.89 m/s, 0° | 0 W/m² | - |
| 1777999453 | 11.67° C | 93% | 1009.8 hPa | 0 mm | 1.34 m/s, 315° | 38 W/m² | - |
| 1777997653 | 12.22° C | 84% | 1009.8 hPa | 0 mm | 0.89 m/s, 45° | 47 W/m² | - |
| 1777994054 | 12.78° C | 79% | 1010 hPa | 0 mm | 0.89 m/s, 45° | 80 W/m² | - |
| 1777988653 | 12.22° C | 89% | 1010.6 hPa | 0 mm | 0.45 m/s, 0° | 57 W/m² | - |
| 1777986854 | 12.22° C | 93% | 1010.8 hPa | 0 mm | 0.45 m/s, 45° | 84 W/m² | - |
| 1777985058 | 12.78° C | 91% | 1011 hPa | 0 mm | 0.45 m/s, 225° | 61 W/m² | - |
| 1777983253 | 11.67° C | 93% | 1011 hPa | 0 mm | 0.45 m/s, 45° | 48 W/m² | - |
| 1777981454 | 11.67° C | 95% | 1011.1 hPa | 0 mm | 0.45 m/s, 270° | 67 W/m² | - |
| 1777979653 | 11.67° C | 95% | 1011.2 hPa | 0 mm | 0.45 m/s, 315° | 69 W/m² | - |
| 1777977854 | 11.11° C | 98% | 1011.4 hPa | 0 mm | 0.89 m/s, 180° | 54 W/m² | - |
* Rain latest hour (hover to see other rain measurements)
** Current wind speed in m/s (hover to see current wind gust speed)